sensor_id;sensor_type;location;lat;lon;timestamp;pressure;altitude;pressure_sealevel;temperature;humidity
22311;BME280;11323;49.610;11.016;2023-05-20T00:02:48;98378.28;;;17.85;54.30
22311;BME280;11323;49.610;11.016;2023-05-20T00:07:48;98368.75;;;17.84;54.30
22311;BME280;11323;49.610;11.016;2023-05-20T00:12:48;98375.03;;;17.83;54.46
22311;BME280;11323;49.610;11.016;2023-05-20T00:17:49;98370.75;;;17.82;54.71
22311;BME280;11323;49.610;11.016;2023-05-20T00:22:49;98366.47;;;17.81;54.34
22311;BME280;11323;49.610;11.016;2023-05-20T00:27:49;98363.84;;;17.81;54.33
22311;BME280;11323;49.610;11.016;2023-05-20T00:32:50;98365.47;;;17.82;54.03
22311;BME280;11323;49.610;11.016;2023-05-20T00:37:50;98360.41;;;17.80;54.94
22311;BME280;11323;49.610;11.016;2023-05-20T00:42:50;98359.56;;;17.80;54.98
22311;BME280;11323;49.610;11.016;2023-05-20T00:47:51;98351.84;;;17.78;54.82
22311;BME280;11323;49.610;11.016;2023-05-20T00:52:51;98366.03;;;17.77;54.69
22311;BME280;11323;49.610;11.016;2023-05-20T00:57:54;98365.88;;;17.79;54.61
22311;BME280;11323;49.610;11.016;2023-05-20T01:02:55;98365.88;;;17.79;54.80
22311;BME280;11323;49.610;11.016;2023-05-20T01:07:56;98359.13;;;17.76;54.49
22311;BME280;11323;49.610;11.016;2023-05-20T01:13:00;98356.31;;;17.78;53.85
22311;BME280;11323;49.610;11.016;2023-05-20T01:18:02;98357.50;;;17.75;54.14
22311;BME280;11323;49.610;11.016;2023-05-20T01:23:04;98347.78;;;17.75;54.26
22311;BME280;11323;49.610;11.016;2023-05-20T01:28:05;98339.22;;;17.73;54.69
22311;BME280;11323;49.610;11.016;2023-05-20T01:33:09;98339.22;;;17.73;54.24
22311;BME280;11323;49.610;11.016;2023-05-20T01:38:11;98340.03;;;17.74;54.20
22311;BME280;11323;49.610;11.016;2023-05-20T01:43:13;98339.22;;;17.73;54.37
22311;BME280;11323;49.610;11.016;2023-05-20T01:48:14;98338.44;;;17.73;55.02
22311;BME280;11323;49.610;11.016;2023-05-20T01:53:16;98332.31;;;17.72;54.52
22311;BME280;11323;49.610;11.016;2023-05-20T01:58:16;98329.06;;;17.70;54.32
22311;BME280;11323;49.610;11.016;2023-05-20T02:03:16;98320.16;;;17.71;54.79
22311;BME280;11323;49.610;11.016;2023-05-20T02:08:17;98329.06;;;17.70;54.16
22311;BME280;11323;49.610;11.016;2023-05-20T02:13:17;98322.16;;;17.69;54.60
22311;BME280;11323;49.610;11.016;2023-05-20T02:18:18;98322.16;;;17.69;54.94
22311;BME280;11323;49.610;11.016;2023-05-20T02:23:18;98315.88;;;17.70;54.75
22311;BME280;11323;49.610;11.016;2023-05-20T02:28:19;98311.59;;;17.69;55.09
22311;BME280;11323;49.610;11.016;2023-05-20T02:33:19;98309.16;;;17.68;54.97
22311;BME280;11323;49.610;11.016;2023-05-20T02:38:20;98312.81;;;17.67;54.56
22311;BME280;11323;49.610;11.016;2023-05-20T02:43:21;98309.53;;;17.65;54.95
22311;BME280;11323;49.610;11.016;2023-05-20T02:48:21;98307.53;;;17.67;54.80
22311;BME280;11323;49.610;11.016;2023-05-20T02:53:21;98313.00;;;17.65;54.55
22311;BME280;11323;49.610;11.016;2023-05-20T02:58:22;98317.44;;;17.65;54.43
22311;BME280;11323;49.610;11.016;2023-05-20T03:03:25;98327.19;;;17.64;55.11
22311;BME280;11323;49.610;11.016;2023-05-20T03:08:29;98319.25;;;17.64;54.37
22311;BME280;11323;49.610;11.016;2023-05-20T03:13:30;98322.91;;;17.63;55.20
22311;BME280;11323;49.610;11.016;2023-05-20T03:18:32;98316.63;;;17.64;54.28
22311;BME280;11323;49.610;11.016;2023-05-20T03:23:33;98314.34;;;17.61;54.62
22311;BME280;11323;49.610;11.016;2023-05-20T03:28:35;98318.00;;;17.60;54.50
22311;BME280;11323;49.610;11.016;2023-05-20T03:33:35;98313.34;;;17.62;54.84
22311;BME280;11323;49.610;11.016;2023-05-20T03:38:37;98313.34;;;17.62;55.06
22311;BME280;11323;49.610;11.016;2023-05-20T03:43:37;98313.34;;;17.62;54.59
22311;BME280;11323;49.610;11.016;2023-05-20T03:48:39;98316.00;;;17.62;54.78
22311;BME280;11323;49.610;11.016;2023-05-20T03:53:40;98315.56;;;17.58;54.97
22311;BME280;11323;49.610;11.016;2023-05-20T03:58:41;98323.63;;;17.57;54.59
22311;BME280;11323;49.610;11.016;2023-05-20T04:03:43;98321.63;;;17.59;55.30
22311;BME280;11323;49.610;11.016;2023-05-20T04:08:43;98320.00;;;17.58;55.24
22311;BME280;11323;49.610;11.016;2023-05-20T04:13:44;98330.53;;;17.58;54.20
22311;BME280;11323;49.610;11.016;2023-05-20T04:18:44;98333.16;;;17.58;54.89
22311;BME280;11323;49.610;11.016;2023-05-20T04:23:46;98324.66;;;17.56;54.81
22311;BME280;11323;49.610;11.016;2023-05-20T04:28:46;98314.28;;;17.54;55.00
22311;BME280;11323;49.610;11.016;2023-05-20T04:33:50;98319.38;;;17.56;55.25
22311;BME280;11323;49.610;11.016;2023-05-20T04:38:51;98313.09;;;17.57;54.92
22311;BME280;11323;49.610;11.016;2023-05-20T04:43:52;98318.75;;;17.54;54.84
22311;BME280;11323;49.610;11.016;2023-05-20T04:48:53;98323.63;;;17.57;54.52
22311;BME280;11323;49.610;11.016;2023-05-20T04:53:53;98318.75;;;17.54;54.75
22311;BME280;11323;49.610;11.016;2023-05-20T04:58:54;98329.09;;;17.55;54.46
22311;BME280;11323;49.610;11.016;2023-05-20T05:03:55;98326.66;;;17.54;54.58
22311;BME280;11323;49.610;11.016;2023-05-20T05:08:56;98319.38;;;17.56;54.94
22311;BME280;11323;49.610;11.016;2023-05-20T05:13:57;98323.53;;;17.65;55.10
22311;BME280;11323;49.610;11.016;2023-05-20T05:19:00;98313.81;;;17.66;54.37
22311;BME280;11323;49.610;11.016;2023-05-20T05:24:04;98309.59;;;17.71;54.40
22311;BME280;11323;49.610;11.016;2023-05-20T05:29:05;98309.81;;;17.70;54.77
22311;BME280;11323;49.610;11.016;2023-05-20T05:34:06;98295.78;;;17.69;54.37
22311;BME280;11323;49.610;11.016;2023-05-20T05:39:06;98298.06;;;17.72;55.11
22311;BME280;11323;49.610;11.016;2023-05-20T05:44:08;98303.59;;;17.78;54.36
22311;BME280;11323;49.610;11.016;2023-05-20T05:49:09;98290.28;;;17.86;54.77
22311;BME280;11323;49.610;11.016;2023-05-20T05:54:10;98291.56;;;17.90;54.13
22311;BME280;11323;49.610;11.016;2023-05-20T05:59:10;98286.28;;;17.90;54.12
22311;BME280;11323;49.610;11.016;2023-05-20T06:04:10;98281.03;;;17.90;54.30
22311;BME280;11323;49.610;11.016;2023-05-20T06:09:12;98285.09;;;17.93;53.88
22311;BME280;11323;49.610;11.016;2023-05-20T06:14:12;98280.25;;;17.96;54.45
22311;BME280;11323;49.610;11.016;2023-05-20T06:19:13;98268.91;;;17.96;54.03
22311;BME280;11323;49.610;11.016;2023-05-20T06:24:14;98260.00;;;17.97;54.21
22311;BME280;11323;49.610;11.016;2023-05-20T06:29:15;98262.00;;;17.95;54.53
22311;BME280;11323;49.610;11.016;2023-05-20T06:34:15;98254.66;;;17.90;54.92
22311;BME280;11323;49.610;11.016;2023-05-20T06:39:16;98252.63;;;17.92;54.21
22311;BME280;11323;49.610;11.016;2023-05-20T06:44:18;98251.00;;;17.91;54.29
22311;BME280;11323;49.610;11.016;2023-05-20T06:49:29;98251.38;;;17.88;54.64
22311;BME280;11323;49.610;11.016;2023-05-20T06:54:30;98255.03;;;17.87;55.09
22311;BME280;11323;49.610;11.016;2023-05-20T06:59:34;98256.03;;;17.86;54.75
22311;BME280;11323;49.610;11.016;2023-05-20T07:04:36;98255.19;;;17.85;54.87
22311;BME280;11323;49.610;11.016;2023-05-20T07:09:37;98248.13;;;17.86;55.23
22311;BME280;11323;49.610;11.016;2023-05-20T07:14:39;98246.91;;;17.88;55.16
22311;BME280;11323;49.610;11.016;2023-05-20T07:19:40;98241.00;;;17.86;55.97
22311;BME280;11323;49.610;11.016;2023-05-20T07:24:40;98247.13;;;17.87;55.71
22311;BME280;11323;49.610;11.016;2023-05-20T07:29:41;98237.56;;;17.86;56.03
22311;BME280;11323;49.610;11.016;2023-05-20T07:34:42;98239.56;;;17.84;55.41
22311;BME280;11323;49.610;11.016;2023-05-20T07:39:43;98242.84;;;17.86;55.66
22311;BME280;11323;49.610;11.016;2023-05-20T07:44:43;98236.56;;;17.87;55.36
22311;BME280;11323;49.610;11.016;2023-05-20T07:49:44;98224.38;;;17.86;54.77
22311;BME280;11323;49.610;11.016;2023-05-20T07:54:46;98228.66;;;17.87;55.08
22311;BME280;11323;49.610;11.016;2023-05-20T07:59:49;98233.56;;;17.90;55.57
22311;BME280;11323;49.610;11.016;2023-05-20T08:04:50;98225.81;;;17.88;55.40
22311;BME280;11323;49.610;11.016;2023-05-20T08:09:51;98232.34;;;17.93;55.29
22311;BME280;11323;49.610;11.016;2023-05-20T08:14:53;98217.34;;;17.93;54.90
22311;BME280;11323;49.610;11.016;2023-05-20T08:19:53;98208.44;;;17.94;54.95
22311;BME280;11323;49.610;11.016;2023-05-20T08:24:54;98210.06;;;17.95;54.92
22311;BME280;11323;49.610;11.016;2023-05-20T08:29:54;98187.97;;;17.96;55.16
22311;BME280;11323;49.610;11.016;2023-05-20T08:34:55;98184.34;;;17.97;55.70
22311;BME280;11323;49.610;11.016;2023-05-20T08:39:56;98194.34;;;18.02;55.87
22311;BME280;11323;49.610;11.016;2023-05-20T08:44:58;98191.50;;;18.03;55.89
22311;BME280;11323;49.610;11.016;2023-05-20T08:50:01;98189.47;;;18.05;55.88
22311;BME280;11323;49.610;11.016;2023-05-20T08:55:03;98200.03;;;18.05;55.22
22311;BME280;11323;49.610;11.016;2023-05-20T09:00:07;98183.84;;;18.09;55.73
22311;BME280;11323;49.610;11.016;2023-05-20T09:05:12;98186.69;;;18.14;56.69
22311;BME280;11323;49.610;11.016;2023-05-20T09:10:13;98185.94;;;18.20;55.82
22311;BME280;11323;49.610;11.016;2023-05-20T09:15:14;98193.22;;;18.18;55.26
22311;BME280;11323;49.610;11.016;2023-05-20T09:20:14;98193.22;;;18.18;55.92
22311;BME280;11323;49.610;11.016;2023-05-20T09:25:18;98196.50;;;18.20;55.38
22311;BME280;11323;49.610;11.016;2023-05-20T09:30:20;98192.44;;;18.24;55.19
22311;BME280;11323;49.610;11.016;2023-05-20T09:35:22;98184.34;;;18.26;55.70
22311;BME280;11323;49.610;11.016;2023-05-20T09:40:26;98199.81;;;18.29;55.19
22311;BME280;11323;49.610;11.016;2023-05-20T09:45:27;98189.69;;;18.32;54.89
22311;BME280;11323;49.610;11.016;2023-05-20T09:50:28;98188.44;;;18.28;55.72
22311;BME280;11323;49.610;11.016;2023-05-20T09:55:29;98178.47;;;18.24;55.75
22311;BME280;11323;49.610;11.016;2023-05-20T10:00:30;98166.91;;;18.25;55.41
22311;BME280;11323;49.610;11.016;2023-05-20T10:05:36;98168.97;;;18.29;55.62
22311;BME280;11323;49.610;11.016;2023-05-20T10:21:23;98156.84;;;18.42;55.73
22311;BME280;11323;49.610;11.016;2023-05-20T10:26:34;98154.84;;;18.44;55.07
22311;BME280;11323;49.610;11.016;2023-05-20T10:31:43;98132.72;;;18.45;55.47
22311;BME280;11323;49.610;11.016;2023-05-20T10:47:07;98136.81;;;18.54;57.00
22311;BME280;11323;49.610;11.016;2023-05-20T10:52:08;98126.06;;;18.56;56.50
22311;BME280;11323;49.610;11.016;2023-05-20T10:57:09;98123.25;;;18.57;57.33
22311;BME280;11323;49.610;11.016;2023-05-20T11:02:10;98127.50;;;18.58;56.89
22311;BME280;11323;49.610;11.016;2023-05-20T11:07:12;98125.72;;;18.65;57.56
22311;BME280;11323;49.610;11.016;2023-05-20T11:12:12;98123.25;;;18.64;57.15
22311;BME280;11323;49.610;11.016;2023-05-20T11:17:13;98113.09;;;18.61;57.12
22311;BME280;11323;49.610;11.016;2023-05-20T11:22:13;98107.00;;;18.60;56.98
22311;BME280;11323;49.610;11.016;2023-05-20T11:27:14;98095.63;;;18.60;56.98
22311;BME280;11323;49.610;11.016;2023-05-20T11:32:14;98102.34;;;18.62;56.57
22311;BME280;11323;49.610;11.016;2023-05-20T11:37:17;98095.44;;;18.61;56.01
22311;BME280;11323;49.610;11.016;2023-05-20T11:42:18;98091.16;;;18.60;56.47
22311;BME280;11323;49.610;11.016;2023-05-20T11:47:23;98076.94;;;18.61;56.08
22311;BME280;11323;49.610;11.016;2023-05-20T11:52:27;98084.88;;;18.61;56.24
22311;BME280;11323;49.610;11.016;2023-05-20T11:57:29;98084.28;;;18.66;56.61
22311;BME280;11323;49.610;11.016;2023-05-20T12:02:30;98086.13;;;18.65;56.29
22311;BME280;11323;49.610;11.016;2023-05-20T12:07:31;98069.06;;;18.68;56.26
22311;BME280;11323;49.610;11.016;2023-05-20T12:12:31;98079.41;;;18.70;55.99
22311;BME280;11323;49.610;11.016;2023-05-20T12:17:43;98088.38;;;18.68;56.21
22311;BME280;11323;49.610;11.016;2023-05-20T12:22:44;98089.97;;;18.70;56.17
22311;BME280;11323;49.610;11.016;2023-05-20T12:27:45;98091.59;;;18.71;55.98
22311;BME280;11323;49.610;11.016;2023-05-20T12:32:49;98082.50;;;18.73;55.98
22311;BME280;11323;49.610;11.016;2023-05-20T12:37:50;98071.72;;;18.75;56.26
22311;BME280;11323;49.610;11.016;2023-05-20T12:42:51;98077.59;;;18.70;55.62
22311;BME280;11323;49.610;11.016;2023-05-20T12:47:52;98082.91;;;18.77;56.17
22311;BME280;11323;49.610;11.016;2023-05-20T12:52:53;98072.97;;;18.79;56.41
22311;BME280;11323;49.610;11.016;2023-05-20T12:57:53;98069.31;;;18.80;56.26
22311;BME280;11323;49.610;11.016;2023-05-20T13:02:55;98062.19;;;18.80;56.21
22311;BME280;11323;49.610;11.016;2023-05-20T13:07:55;98058.34;;;18.83;56.50
22311;BME280;11323;49.610;11.016;2023-05-20T13:12:55;98061.59;;;18.85;56.14
22311;BME280;11323;49.610;11.016;2023-05-20T13:17:56;98059.56;;;18.87;56.16
22311;BME280;11323;49.610;11.016;2023-05-20T13:22:57;98062.84;;;18.89;56.28
22311;BME280;11323;49.610;11.016;2023-05-20T13:27:57;98056.72;;;18.89;56.35
22311;BME280;11323;49.610;11.016;2023-05-20T13:32:57;98044.97;;;18.91;56.55
22311;BME280;11323;49.610;11.016;2023-05-20T13:37:58;98042.94;;;18.93;56.68
22311;BME280;11323;49.610;11.016;2023-05-20T13:42:58;98034.00;;;18.94;56.72
22311;BME280;11323;49.610;11.016;2023-05-20T13:47:58;98034.63;;;18.96;56.41
22311;BME280;11323;49.610;11.016;2023-05-20T13:52:59;98030.34;;;18.95;56.33
22311;BME280;11323;49.610;11.016;2023-05-20T13:57:59;98030.34;;;18.95;56.54
22311;BME280;11323;49.610;11.016;2023-05-20T14:02:59;98016.75;;;18.98;56.31
22311;BME280;11323;49.610;11.016;2023-05-20T14:08:00;98020.63;;;19.03;56.67
22311;BME280;11323;49.610;11.016;2023-05-20T14:13:01;98001.09;;;19.04;56.46
22311;BME280;11323;49.610;11.016;2023-05-20T14:18:01;97999.09;;;19.06;55.93
22311;BME280;11323;49.610;11.016;2023-05-20T14:23:01;97988.13;;;19.09;56.18
22311;BME280;11323;49.610;11.016;2023-05-20T14:28:02;97981.63;;;19.11;56.29
22311;BME280;11323;49.610;11.016;2023-05-20T14:33:03;97965.75;;;19.11;56.34
22311;BME280;11323;49.610;11.016;2023-05-20T14:38:03;97966.38;;;19.13;56.44
22311;BME280;11323;49.610;11.016;2023-05-20T14:43:03;97964.53;;;19.14;56.45
22311;BME280;11323;49.610;11.016;2023-05-20T14:48:04;97962.31;;;19.18;56.48
22311;BME280;11323;49.610;11.016;2023-05-20T14:53:05;97964.13;;;19.17;56.52
22311;BME280;11323;49.610;11.016;2023-05-20T14:58:06;97954.81;;;19.21;56.35
22311;BME280;11323;49.610;11.016;2023-05-20T15:03:06;97953.16;;;19.20;56.05
22311;BME280;11323;49.610;11.016;2023-05-20T15:08:06;97949.69;;;19.20;56.06
22311;BME280;11323;49.610;11.016;2023-05-20T15:13:07;97947.66;;;19.22;56.12
22311;BME280;11323;49.610;11.016;2023-05-20T15:18:07;97948.06;;;19.25;56.38
22311;BME280;11323;49.610;11.016;2023-05-20T15:23:07;97945.44;;;19.25;56.19
22311;BME280;11323;49.610;11.016;2023-05-20T15:28:08;97938.72;;;19.29;56.56
22311;BME280;11323;49.610;11.016;2023-05-20T15:33:08;97928.38;;;19.35;56.44
22311;BME280;11323;49.610;11.016;2023-05-20T15:38:09;97930.00;;;19.36;56.50
22311;BME280;11323;49.610;11.016;2023-05-20T15:43:09;97926.91;;;19.39;56.36
22311;BME280;11323;49.610;11.016;2023-05-20T15:48:10;97920.63;;;19.40;56.49
22311;BME280;11323;49.610;11.016;2023-05-20T15:53:10;97916.56;;;19.44;56.33
22311;BME280;11323;49.610;11.016;2023-05-20T15:58:10;97920.59;;;19.47;56.15
22311;BME280;11323;49.610;11.016;2023-05-20T16:03:11;97927.91;;;19.51;56.50
22311;BME280;11323;49.610;11.016;2023-05-20T16:08:11;97925.06;;;19.53;56.42
22311;BME280;11323;49.610;11.016;2023-05-20T16:13:11;97909.00;;;19.54;56.07
22311;BME280;11323;49.610;11.016;2023-05-20T16:18:12;97921.81;;;19.57;56.08
22311;BME280;11323;49.610;11.016;2023-05-20T16:23:12;97918.94;;;19.59;56.58
22311;BME280;11323;49.610;11.016;2023-05-20T16:28:13;97918.16;;;19.58;56.12
22311;BME280;11323;49.610;11.016;2023-05-20T16:33:13;97925.03;;;19.59;56.15
22311;BME280;11323;49.610;11.016;2023-05-20T16:38:13;97928.72;;;19.58;56.14
22311;BME280;11323;49.610;11.016;2023-05-20T16:43:14;97929.31;;;19.60;55.86
22311;BME280;11323;49.610;11.016;2023-05-20T16:48:14;97932.78;;;19.61;56.09
22311;BME280;11323;49.610;11.016;2023-05-20T16:53:14;97929.53;;;19.59;56.29
22311;BME280;11323;49.610;11.016;2023-05-20T16:58:15;97947.63;;;19.62;55.92
22311;BME280;11323;49.610;11.016;2023-05-20T17:03:15;97943.34;;;19.61;55.97
22311;BME280;11323;49.610;11.016;2023-05-20T17:08:17;97942.53;;;19.60;56.14
22311;BME280;11323;49.610;11.016;2023-05-20T17:13:17;97949.03;;;19.65;55.77
22311;BME280;11323;49.610;11.016;2023-05-20T17:18:17;97944.34;;;19.67;55.71
22311;BME280;11323;49.610;11.016;2023-05-20T17:23:18;97949.63;;;19.67;55.91
22311;BME280;11323;49.610;11.016;2023-05-20T17:28:18;97947.78;;;19.67;56.00
22311;BME280;11323;49.610;11.016;2023-05-20T17:33:18;97952.28;;;19.67;56.13
22311;BME280;11323;49.610;11.016;2023-05-20T17:38:19;97951.44;;;19.66;56.17
22311;BME280;11323;49.610;11.016;2023-05-20T17:43:21;97954.72;;;19.68;56.22
22311;BME280;11323;49.610;11.016;2023-05-20T17:48:24;97949.03;;;19.65;56.31
22311;BME280;11323;49.610;11.016;2023-05-20T17:53:24;97956.56;;;19.68;55.98
22311;BME280;11323;49.610;11.016;2023-05-20T17:58:25;97956.97;;;19.65;56.22
22311;BME280;11323;49.610;11.016;2023-05-20T18:03:26;97959.19;;;19.68;56.41
22311;BME280;11323;49.610;11.016;2023-05-20T18:08:26;97953.91;;;19.68;56.10
22311;BME280;11323;49.610;11.016;2023-05-20T18:13:27;97951.25;;;19.68;55.74
22311;BME280;11323;49.610;11.016;2023-05-20T18:18:27;97960.81;;;19.69;55.35
22311;BME280;11323;49.610;11.016;2023-05-20T18:23:27;97962.44;;;19.70;55.89
22311;BME280;11323;49.610;11.016;2023-05-20T18:28:28;97963.47;;;19.69;55.82
22311;BME280;11323;49.610;11.016;2023-05-20T18:33:28;97967.75;;;19.70;55.33
22311;BME280;11323;49.610;11.016;2023-05-20T18:38:28;97970.16;;;19.71;55.91
22311;BME280;11323;49.610;11.016;2023-05-20T18:43:29;97969.34;;;19.71;55.67
22311;BME280;11323;49.610;11.016;2023-05-20T18:48:29;97972.81;;;19.71;55.56
22311;BME280;11323;49.610;11.016;2023-05-20T18:53:30;97971.19;;;19.70;55.73
22311;BME280;11323;49.610;11.016;2023-05-20T18:58:31;97969.94;;;19.73;55.46
22311;BME280;11323;49.610;11.016;2023-05-20T19:03:31;97975.22;;;19.73;55.85
22311;BME280;11323;49.610;11.016;2023-05-20T19:08:31;97978.72;;;19.73;56.15
22311;BME280;11323;49.610;11.016;2023-05-20T19:13:32;97990.09;;;19.74;56.34
22311;BME280;11323;49.610;11.016;2023-05-20T19:18:33;97981.53;;;19.72;56.50
22311;BME280;11323;49.610;11.016;2023-05-20T19:23:33;97987.66;;;19.72;57.07
22311;BME280;11323;49.610;11.016;2023-05-20T19:28:34;97988.25;;;19.74;56.65
22311;BME280;11323;49.610;11.016;2023-05-20T19:33:34;97992.31;;;19.77;56.62
22311;BME280;11323;49.610;11.016;2023-05-20T19:38:34;97991.50;;;19.76;56.59
22311;BME280;11323;49.610;11.016;2023-05-20T19:43:35;97998.63;;;19.76;56.87
22311;BME280;11323;49.610;11.016;2023-05-20T19:48:35;98007.16;;;19.78;56.58
22311;BME280;11323;49.610;11.016;2023-05-20T19:53:36;98002.91;;;19.77;57.06
22311;BME280;11323;49.610;11.016;2023-05-20T19:58:37;97998.22;;;19.79;57.09
22311;BME280;11323;49.610;11.016;2023-05-20T20:03:39;98001.06;;;19.78;56.92
22311;BME280;11323;49.610;11.016;2023-05-20T20:08:40;98003.69;;;19.78;56.96
22311;BME280;11323;49.610;11.016;2023-05-20T20:13:41;97997.38;;;19.79;57.37
22311;BME280;11323;49.610;11.016;2023-05-20T20:18:41;97997.38;;;19.79;57.40
22311;BME280;11323;49.610;11.016;2023-05-20T20:23:41;98002.69;;;19.79;56.83
22311;BME280;11323;49.610;11.016;2023-05-20T20:28:42;97995.56;;;19.79;57.21
22311;BME280;11323;49.610;11.016;2023-05-20T20:33:42;97999.00;;;19.80;57.24
22311;BME280;11323;49.610;11.016;2023-05-20T20:38:43;97991.31;;;19.78;57.17
22311;BME280;11323;49.610;11.016;2023-05-20T20:43:45;97993.53;;;19.81;57.69
22311;BME280;11323;49.610;11.016;2023-05-20T20:48:46;97995.97;;;19.83;57.31
22311;BME280;11323;49.610;11.016;2023-05-20T20:53:46;97997.78;;;19.82;57.11
22311;BME280;11323;49.610;11.016;2023-05-20T20:58:47;97993.09;;;19.84;57.54
22311;BME280;11323;49.610;11.016;2023-05-20T21:03:53;97985.16;;;19.84;57.79
22311;BME280;11323;49.610;11.016;2023-05-20T21:08:53;97984.38;;;19.84;57.68
22311;BME280;11323;49.610;11.016;2023-05-20T21:13:57;97982.53;;;19.84;57.86
22311;BME280;11323;49.610;11.016;2023-05-20T21:18:57;97979.88;;;19.84;57.75
22311;BME280;11323;49.610;11.016;2023-05-20T21:23:57;97980.91;;;19.83;57.67
22311;BME280;11323;49.610;11.016;2023-05-20T21:28:58;97980.72;;;19.85;57.63
22311;BME280;11323;49.610;11.016;2023-05-20T21:33:58;97976.63;;;19.82;57.71
22311;BME280;11323;49.610;11.016;2023-05-20T21:38:58;97973.78;;;19.84;57.72
22311;BME280;11323;49.610;11.016;2023-05-20T21:43:59;97969.31;;;19.84;57.93
22311;BME280;11323;49.610;11.016;2023-05-20T21:48:59;97972.97;;;19.83;58.01
22311;BME280;11323;49.610;11.016;2023-05-20T21:53:59;97982.53;;;19.84;58.03
22311;BME280;11323;49.610;11.016;2023-05-20T21:59:00;97970.94;;;19.85;57.64
22311;BME280;11323;49.610;11.016;2023-05-20T22:04:00;97974.59;;;19.84;57.40
22311;BME280;11323;49.610;11.016;2023-05-20T22:09:02;97973.97;;;19.82;57.99
22311;BME280;11323;49.610;11.016;2023-05-20T22:14:02;97960.97;;;19.81;57.69
22311;BME280;11323;49.610;11.016;2023-05-20T22:19:03;97964.00;;;19.84;58.02
22311;BME280;11323;49.610;11.016;2023-05-20T22:24:04;97966.50;;;19.86;57.77
22311;BME280;11323;49.610;11.016;2023-05-20T22:29:05;97953.44;;;19.84;57.90
22311;BME280;11323;49.610;11.016;2023-05-20T22:34:05;97949.78;;;19.85;58.02
22311;BME280;11323;49.610;11.016;2023-05-20T22:39:05;97953.44;;;19.84;58.26
22311;BME280;11323;49.610;11.016;2023-05-20T22:44:06;97946.53;;;19.83;58.10
22311;BME280;11323;49.610;11.016;2023-05-20T22:49:06;97934.31;;;19.82;58.63
22311;BME280;11323;49.610;11.016;2023-05-20T22:54:09;97923.75;;;19.82;58.19
22311;BME280;11323;49.610;11.016;2023-05-20T22:59:09;97913.16;;;19.82;58.51
22311;BME280;11323;49.610;11.016;2023-05-20T23:04:09;97920.28;;;19.82;58.77
22311;BME280;11323;49.610;11.016;2023-05-20T23:09:11;97920.06;;;19.83;58.38
22311;BME280;11323;49.610;11.016;2023-05-20T23:14:11;97906.28;;;19.81;58.57
22311;BME280;11323;49.610;11.016;2023-05-20T23:19:12;97908.91;;;19.81;58.59
22311;BME280;11323;49.610;11.016;2023-05-20T23:24:12;97901.78;;;19.82;58.56
22311;BME280;11323;49.610;11.016;2023-05-20T23:29:12;97901.78;;;19.82;58.47
22311;BME280;11323;49.610;11.016;2023-05-20T23:34:13;97906.28;;;19.81;59.13
22311;BME280;11323;49.610;11.016;2023-05-20T23:39:14;97909.72;;;19.82;58.49
22311;BME280;11323;49.610;11.016;2023-05-20T23:44:14;97906.28;;;19.81;58.61
22311;BME280;11323;49.610;11.016;2023-05-20T23:49:15;97906.28;;;19.81;58.78
22311;BME280;11323;49.610;11.016;2023-05-20T23:54:17;97907.88;;;19.82;58.73
22311;BME280;11323;49.610;11.016;2023-05-20T23:59:19;97913.16;;;19.82;58.92
